Time;durP1;ratioP1;P1;durP2;ratioP2;P2;SDS_P1;SDS_P2;PMS_P1;PMS_P2;Temp;Humidity;BMP_temperature;BMP_pressure;BME280_temperature;BME280_humidity;BME280_pressure;Samples;Min_cycle;Max_cycle;Signal;HPM_P1;HPM_P2
2023/01/09 00:01:10;;;;;;;18.05;13.98;;;;;;;19.65;57.71;99976.84;5033309;28;20113;-48
2023/01/09 00:03:37;;;;;;;16.25;13.73;;;;;;;19.64;57.42;99961.72;5033256;28;20060;-47
2023/01/09 00:06:05;;;;;;;20.65;14.10;;;;;;;19.64;57.58;99958.19;5034148;28;20049;-50
2023/01/09 00:08:32;;;;;;;17.83;14.27;;;;;;;19.63;57.51;99951.13;5037095;28;20053;-55
2023/01/09 00:11:00;;;;;;;18.80;14.38;;;;;;;19.63;57.50;99946.59;5036897;28;20049;-54
2023/01/09 00:13:27;;;;;;;16.42;12.35;;;;;;;19.63;57.44;99945.78;5036308;28;20049;-55
2023/01/09 00:15:54;;;;;;;18.13;13.20;;;;;;;19.63;57.34;99948.47;5036711;28;20045;-53
2023/01/09 00:18:21;;;;;;;19.85;13.68;;;;;;;19.62;57.23;99953.00;5036852;28;20040;-54
2023/01/09 00:20:49;;;;;;;13.98;12.35;;;;;;;19.62;57.28;99942.25;5036846;28;20049;-54
2023/01/09 00:23:16;;;;;;;15.73;12.88;;;;;;;19.62;57.17;99950.31;5036826;28;20045;-55
2023/01/09 00:25:43;;;;;;;17.90;14.27;;;;;;;19.62;57.18;99966.41;5036661;28;20463;-54
2023/01/09 00:28:11;;;;;;;16.85;12.88;;;;;;;19.62;57.01;99973.63;5036634;28;20046;-54
2023/01/09 00:30:38;;;;;;;18.45;14.25;;;;;;;19.62;57.04;99977.16;5036518;28;20049;-54
2023/01/09 00:33:05;;;;;;;15.40;12.65;;;;;;;19.61;57.02;99975.47;5036483;28;20499;-52
2023/01/09 00:35:33;;;;;;;17.65;13.77;;;;;;;19.61;57.14;99979.97;5036094;28;20049;-52
2023/01/09 00:38:02;;;;;;;16.17;12.77;;;;;;;19.61;56.93;100005.00;5036326;28;20046;-48
2023/01/09 00:40:29;;;;;;;18.65;13.57;;;;;;;19.61;57.06;100023.81;5036082;28;20403;-47
2023/01/09 00:42:57;;;;;;;17.67;13.05;;;;;;;19.62;56.78;100020.13;5036132;28;20053;-48
2023/01/09 00:45:27;;;;;;;16.45;13.55;;;;;;;19.61;56.86;99985.34;5034885;28;20069;-47
2023/01/09 00:48:02;;;;;;;16.35;12.38;;;;;;;19.61;56.70;99953.13;5036379;28;20033;-50
2023/01/09 00:50:31;;;;;;;14.45;12.52;;;;;;;19.60;56.66;99930.78;5036252;28;20052;-46
2023/01/09 00:53:05;;;;;;;15.07;12.52;;;;;;;19.61;56.59;99929.84;5036272;28;20050;-46
2023/01/09 00:55:35;;;;;;;17.95;14.18;;;;;;;19.60;56.57;99933.47;5036163;28;20054;-47
2023/01/09 00:58:03;;;;;;;14.65;12.65;;;;;;;19.61;56.50;99950.44;5036334;28;20053;-46
2023/01/09 01:00:30;;;;;;;15.40;12.57;;;;;;;19.60;56.56;99972.88;5036144;28;20045;-46
2023/01/09 01:02:57;;;;;;;16.02;13.75;;;;;;;19.60;56.64;99989.84;5036037;28;20072;-46
2023/01/09 01:08:16;;;;;;;15.55;12.82;;;;;;;19.60;56.67;99978.25;5036155;28;20045;-46
2023/01/09 01:10:45;;;;;;;14.70;13.00;;;;;;;19.60;56.69;99980.94;5035829;28;20046;-48
2023/01/09 01:13:13;;;;;;;13.85;11.52;;;;;;;19.60;56.79;99967.53;5035870;28;20049;-47
2023/01/09 01:15:42;;;;;;;14.30;12.13;;;;;;;19.59;56.63;99953.25;5035603;28;20041;-48
2023/01/09 01:18:11;;;;;;;17.08;13.23;;;;;;;19.60;56.78;99941.50;5034732;28;20391;-47
2023/01/09 01:20:40;;;;;;;13.13;11.65;;;;;;;19.59;56.90;99950.56;5035730;28;20049;-48
2023/01/09 01:23:08;;;;;;;14.93;11.82;;;;;;;19.59;56.76;99942.53;5035621;28;20045;-48
2023/01/09 01:25:40;;;;;;;16.80;12.45;;;;;;;19.59;56.93;99944.38;5035498;28;20472;-48
2023/01/09 01:28:08;;;;;;;15.05;12.38;;;;;;;19.59;57.08;99960.47;5035858;28;20049;-48
2023/01/09 01:30:40;;;;;;;13.90;11.38;;;;;;;19.59;56.75;99952.41;5035539;28;20052;-48
2023/01/09 01:33:09;;;;;;;15.18;11.82;;;;;;;19.58;57.01;99956.94;5035563;28;20068;-48
2023/01/09 01:35:36;;;;;;;15.27;12.05;;;;;;;19.60;56.93;99963.00;5035425;28;20064;-47
2023/01/09 01:38:04;;;;;;;14.57;12.10;;;;;;;19.60;56.96;99962.16;5035561;28;20045;-54
2023/01/09 01:40:31;;;;;;;13.15;10.98;;;;;;;19.59;57.00;99947.06;5034221;28;20404;-54
2023/01/09 01:42:59;;;;;;;16.65;11.13;;;;;;;19.59;57.13;99974.72;5035222;28;20467;-54
2023/01/09 01:45:28;;;;;;;14.90;11.57;;;;;;;19.59;57.11;99972.06;5035220;28;20049;-55
2023/01/09 01:48:30;;;;;;;13.73;11.52;;;;;;;19.59;57.15;99969.38;5035271;28;20064;-48
2023/01/09 01:51:05;;;;;;;14.05;11.65;;;;;;;19.60;57.13;99963.00;5013199;28;20061;-48
2023/01/09 01:53:42;;;;;;;13.40;11.25;;;;;;;19.60;56.99;99954.94;5013271;28;20058;-48
2023/01/09 01:56:15;;;;;;;15.02;11.68;;;;;;;19.60;57.01;99954.94;5013013;28;20054;-48
2023/01/09 01:58:47;;;;;;;14.70;11.23;;;;;;;19.59;57.20;99955.94;5013442;28;20054;-48
2023/01/09 02:01:15;;;;;;;13.13;11.57;;;;;;;19.60;57.11;99948.72;5013110;28;20058;-47
2023/01/09 02:03:43;;;;;;;11.30;10.10;;;;;;;19.60;57.21;99952.25;5012920;28;20776;-47
2023/01/09 02:06:12;;;;;;;12.13;10.48;;;;;;;19.60;56.99;99959.47;5013016;28;20476;-49
2023/01/09 02:08:40;;;;;;;14.10;10.75;;;;;;;19.60;57.00;99951.41;5013009;28;20050;-47
2023/01/09 02:11:07;;;;;;;11.90;10.70;;;;;;;19.59;57.15;99942.53;5013115;28;20053;-47
2023/01/09 02:13:40;;;;;;;14.07;11.30;;;;;;;19.60;57.27;99940.66;5012883;28;20054;-49
2023/01/09 02:16:35;;;;;;;12.20;10.63;;;;;;;19.61;57.21;99931.66;5012917;28;20060;-47
2023/01/09 02:19:09;;;;;;;11.45;10.18;;;;;;;19.60;57.08;99932.63;5012761;28;20475;-48
2023/01/09 02:22:14;;;;;;;;;;;;;;;19.60;57.31;99924.56;5013190;28;20050;-50
2023/01/09 02:25:06;;;;;;;11.07;9.82;;;;;;;19.61;57.33;99939.69;4973370;28;19929;-52
2023/01/09 02:27:49;;;;;;;12.48;10.63;;;;;;;19.59;57.38;99939.00;4973701;28;20051;-54
2023/01/09 02:30:28;;;;;;;11.73;9.70;;;;;;;19.60;57.39;99951.41;4973277;28;20441;-54
2023/01/09 02:32:59;;;;;;;11.57;10.35;;;;;;;19.59;57.15;99958.63;4973566;28;20051;-52
2023/01/09 02:35:56;;;;;;;10.43;9.23;;;;;;;19.58;57.17;99951.56;4973448;28;20059;-55
2023/01/09 02:38:44;;;;;;;10.65;9.55;;;;;;;19.59;57.08;99950.56;4973443;28;20046;-47
2023/01/09 02:41:44;;;;;;;11.77;9.27;;;;;;;19.59;57.20;99950.56;4973203;28;20063;-48
2023/01/09 02:44:34;;;;;;;13.13;9.93;;;;;;;19.59;57.16;99949.72;4989601;28;20066;-47
2023/01/09 02:47:06;;;;;;;11.38;10.15;;;;;;;19.59;57.10;99953.25;4972914;28;20055;-48
2023/01/09 02:49:36;;;;;;;11.70;9.75;;;;;;;19.60;56.99;99951.41;4973065;28;20058;-47
2023/01/09 02:52:12;;;;;;;11.88;9.27;;;;;;;19.59;56.95;99950.56;4972938;28;20054;-47
2023/01/09 02:55:17;;;;;;;10.88;9.75;;;;;;;19.58;57.01;99943.53;4980679;28;20058;-48
2023/01/09 02:57:47;;;;;;;10.95;9.73;;;;;;;19.58;56.93;99948.06;5033744;28;20045;-50
2023/01/09 03:00:29;;;;;;;10.88;9.25;;;;;;;19.58;57.03;99974.91;5034287;28;20052;-49
2023/01/09 03:03:18;;;;;;;10.02;8.07;;;;;;;19.57;57.00;99974.06;5033972;28;20046;-49
2023/01/09 03:05:52;;;;;;;11.85;9.32;;;;;;;19.59;57.07;99971.22;5034097;28;20049;-50
2023/01/09 03:08:21;;;;;;;;;;;;;;;19.57;56.86;99974.06;5034351;28;20057;-47
2023/01/09 03:10:58;;;;;;;8.98;8.07;;;;;;;19.59;56.84;99973.91;5033788;28;19925;-47
2023/01/09 03:13:31;;;;;;;13.50;9.90;;;;;;;19.58;56.79;99951.56;5033781;28;20049;-47
2023/01/09 03:16:05;;;;;;;12.13;9.70;;;;;;;19.59;56.75;99947.06;5033858;28;20049;-49
2023/01/09 03:18:35;;;;;;;12.13;10.00;;;;;;;19.59;56.70;99931.78;5034069;28;20045;-48
2023/01/09 03:21:05;;;;;;;9.45;7.78;;;;;;;19.58;56.77;99922.03;5033959;28;20054;-48
2023/01/09 03:23:54;;;;;;;11.68;9.10;;;;;;;19.58;56.82;99908.63;5033564;28;20057;-48
2023/01/09 03:26:22;;;;;;;12.25;9.30;;;;;;;19.58;56.70;99903.25;5033816;28;20054;-48
2023/01/09 03:28:50;;;;;;;10.98;9.40;;;;;;;19.60;56.73;99905.78;5033841;28;20041;-50
2023/01/09 03:31:17;;;;;;;9.70;8.63;;;;;;;19.59;56.75;99904.09;5033656;28;20052;-57
2023/01/09 03:33:45;;;;;;;11.20;8.95;;;;;;;19.60;56.76;99908.44;5033643;28;20082;-50
2023/01/09 03:36:16;;;;;;;9.85;8.18;;;;;;;19.58;56.62;99908.63;5032381;28;20053;-51
2023/01/09 03:38:44;;;;;;;9.75;8.50;;;;;;;19.59;56.79;99912.16;5033739;28;20048;-55
2023/01/09 03:41:11;;;;;;;9.40;7.95;;;;;;;19.59;56.76;99918.34;5034643;28;20488;-53
2023/01/09 03:43:39;;;;;;;11.27;8.07;;;;;;;19.59;56.69;99923.72;5037633;28;20050;-55
2023/01/09 03:46:06;;;;;;;9.13;7.57;;;;;;;19.59;56.83;99920.19;5037594;28;20467;-55
2023/01/09 03:48:34;;;;;;;8.85;7.93;;;;;;;19.59;56.55;99923.72;5037720;28;20052;-55
2023/01/09 03:51:01;;;;;;;9.05;7.72;;;;;;;19.59;56.77;99917.50;5037384;28;20045;-55
2023/01/09 03:53:28;;;;;;;8.57;7.68;;;;;;;19.59;56.71;99912.97;5037402;28;20057;-56
2023/01/09 03:55:57;;;;;;;8.68;7.25;;;;;;;19.58;56.83;99916.69;5037245;28;20046;-56
2023/01/09 03:58:25;;;;;;;9.48;8.07;;;;;;;19.58;56.73;99922.03;5037612;28;20053;-49
2023/01/09 04:00:59;;;;;;;8.55;7.65;;;;;;;19.59;56.73;99923.72;5037337;28;20489;-52
2023/01/09 04:03:26;;;;;;;8.20;7.35;;;;;;;19.59;56.57;99931.78;5037024;28;20494;-51
2023/01/09 04:05:54;;;;;;;8.38;7.20;;;;;;;19.58;56.60;99915.84;5036714;28;20045;-51
2023/01/09 04:08:21;;;;;;;11.00;7.68;;;;;;;19.58;56.73;99899.72;5037522;28;20045;-53
2023/01/09 04:10:50;;;;;;;9.30;7.63;;;;;;;19.58;56.83;99905.09;5035662;28;20064;-52
2023/01/09 04:13:17;;;;;;;7.97;6.80;;;;;;;19.58;56.68;99916.69;5037025;28;20380;-50
2023/01/09 04:15:44;;;;;;;8.27;6.75;;;;;;;19.58;56.67;99910.47;5036792;28;20057;-51
2023/01/09 04:18:12;;;;;;;7.78;6.97;;;;;;;19.58;56.84;99921.22;5036066;28;20496;-55
2023/01/09 04:20:39;;;;;;;8.55;7.40;;;;;;;19.58;56.67;99926.56;5036801;28;20041;-56
2023/01/09 04:23:07;;;;;;;9.13;7.85;;;;;;;19.57;56.70;99906.06;5036835;28;20041;-55
2023/01/09 04:25:34;;;;;;;8.45;7.22;;;;;;;19.57;56.72;99904.25;5036871;28;20060;-55
2023/01/09 04:28:02;;;;;;;9.10;6.82;;;;;;;19.57;56.51;99909.63;5036926;28;20041;-54
2023/01/09 04:30:29;;;;;;;8.27;6.78;;;;;;;19.56;56.71;99897.19;5035278;28;20053;-53
2023/01/09 04:32:56;;;;;;;8.70;7.35;;;;;;;19.57;56.56;99915.00;5036581;28;20045;-54
2023/01/09 04:35:24;;;;;;;8.18;6.97;;;;;;;19.58;56.48;99915.84;5036561;28;20041;-54
2023/01/09 04:37:52;;;;;;;9.02;7.47;;;;;;;19.57;56.54;99920.38;5036817;28;20053;-55
2023/01/09 04:40:19;;;;;;;8.50;6.85;;;;;;;19.57;56.64;99923.06;5036800;28;20057;-50
2023/01/09 04:42:47;;;;;;;8.10;6.38;;;;;;;19.58;56.52;99924.72;5035767;28;20057;-48
2023/01/09 04:45:16;;;;;;;7.43;6.47;;;;;;;19.58;56.59;99916.69;5036005;28;20045;-51
2023/01/09 04:47:43;;;;;;;7.53;6.60;;;;;;;19.58;56.45;99927.41;5036310;28;20048;-51
2023/01/09 04:50:11;;;;;;;7.03;6.32;;;;;;;19.59;56.55;99936.31;5036153;28;20044;-54
2023/01/09 04:52:39;;;;;;;8.02;6.82;;;;;;;19.58;56.45;99924.72;5034878;28;20117;-55
2023/01/09 04:55:07;;;;;;;8.15;6.53;;;;;;;19.59;56.42;99920.19;5036164;28;20046;-55
2023/01/09 04:57:35;;;;;;;7.50;6.32;;;;;;;19.59;56.45;99917.50;5036199;28;20487;-53
2023/01/09 05:00:10;;;;;;;9.15;6.95;;;;;;;19.58;56.20;99916.69;5036268;28;20042;-55
2023/01/09 05:02:39;;;;;;;8.40;6.85;;;;;;;19.59;56.32;99918.34;5035701;28;20050;-53
2023/01/09 05:05:08;;;;;;;6.85;6.10;;;;;;;19.58;56.34;99914.00;5035603;28;20549;-55
2023/01/09 05:07:38;;;;;;;7.57;6.25;;;;;;;19.58;56.38;99900.56;5034877;28;20049;-48
2023/01/09 05:10:06;;;;;;;7.93;6.45;;;;;;;19.58;56.37;99897.88;5035907;28;20041;-49
2023/01/09 05:12:35;;;;;;;7.25;6.53;;;;;;;19.59;56.28;99896.88;5035912;28;20057;-49
2023/01/09 05:15:04;;;;;;;8.75;6.55;;;;;;;19.59;56.49;99899.56;5035779;28;20053;-48
2023/01/09 05:17:31;;;;;;;8.07;6.25;;;;;;;19.58;56.34;99895.19;5035768;28;20056;-49
2023/01/09 05:19:59;;;;;;;6.82;5.95;;;;;;;19.58;56.30;99902.41;5035400;28;20045;-54
2023/01/09 05:22:27;;;;;;;7.22;6.22;;;;;;;19.58;56.42;99916.69;5035213;28;20376;-53
2023/01/09 05:24:55;;;;;;;7.18;6.13;;;;;;;19.58;56.49;99915.84;5035431;28;20053;-54
2023/01/09 05:27:22;;;;;;;6.35;5.28;;;;;;;19.59;56.36;99917.50;5035471;28;20048;-49
2023/01/09 05:29:49;;;;;;;6.72;5.78;;;;;;;19.59;56.56;99925.56;5034278;28;20052;-49
2023/01/09 05:32:17;;;;;;;7.82;5.65;;;;;;;19.58;56.53;99930.09;5035309;28;20492;-48
2023/01/09 05:34:44;;;;;;;7.03;5.53;;;;;;;19.59;56.49;99936.31;5035373;28;20041;-53
2023/01/09 05:37:11;;;;;;;6.93;6.00;;;;;;;19.58;56.51;99932.78;5035590;28;20483;-49
2023/01/09 05:39:39;;;;;;;7.13;5.93;;;;;;;19.58;56.62;99935.47;5035739;28;20041;-55
2023/01/09 05:42:06;;;;;;;7.18;5.70;;;;;;;19.58;56.69;99940.00;5035186;28;20057;-55
2023/01/09 05:44:33;;;;;;;7.03;6.07;;;;;;;19.57;56.59;99933.78;5035374;28;20057;-54
2023/01/09 05:47:00;;;;;;;7.47;5.57;;;;;;;19.58;56.73;99935.47;5035130;28;20049;-55
2023/01/09 05:49:29;;;;;;;5.75;5.15;;;;;;;19.58;56.69;99940.00;5035262;28;20042;-57
2023/01/09 05:51:56;;;;;;;6.32;5.45;;;;;;;19.58;56.64;99954.25;5034719;28;20053;-54
2023/01/09 05:54:23;;;;;;;7.50;5.32;;;;;;;19.58;56.60;99940.84;5035098;28;20056;-54
2023/01/09 05:56:50;;;;;;;6.78;5.32;;;;;;;19.56;56.68;99932.06;5035271;28;20075;-53
2023/01/09 05:59:18;;;;;;;8.57;5.65;;;;;;;19.56;56.56;99931.25;5035318;28;20042;-52
2023/01/09 06:01:45;;;;;;;7.63;6.03;;;;;;;19.56;56.58;99924.03;5034739;28;20045;-52
2023/01/09 06:04:13;;;;;;;6.00;5.40;;;;;;;19.57;56.57;99923.06;5034307;28;20048;-48
2023/01/09 06:06:40;;;;;;;8.55;5.32;;;;;;;19.57;56.52;99924.88;5034684;28;20042;-48
2023/01/09 06:09:08;;;;;;;5.35;4.80;;;;;;;19.58;56.61;99919.34;5035105;28;20041;-52
2023/01/09 06:11:37;;;;;;;5.93;5.05;;;;;;;19.58;56.68;99922.03;5034604;28;20402;-52
2023/01/09 06:14:05;;;;;;;6.15;4.82;;;;;;;19.57;56.62;99917.69;5034785;28;20402;-54
2023/01/09 06:16:32;;;;;;;5.95;4.88;;;;;;;19.58;56.75;99908.63;5034426;28;20049;-52
2023/01/09 06:19:00;;;;;;;6.43;4.90;;;;;;;19.59;56.69;99907.63;5034610;28;20052;-48
2023/01/09 06:21:28;;;;;;;6.15;4.68;;;;;;;19.58;56.63;99903.25;5034654;28;20045;-48
2023/01/09 06:23:55;;;;;;;6.00;4.72;;;;;;;19.60;56.47;99920.03;5034721;28;20053;-48
2023/01/09 06:26:24;;;;;;;7.25;4.70;;;;;;;19.59;56.45;99918.34;5034299;28;20480;-48
2023/01/09 06:28:54;;;;;;;5.85;4.85;;;;;;;19.59;56.58;99921.03;5034698;28;20041;-48
2023/01/09 06:31:23;;;;;;;5.55;4.35;;;;;;;19.58;56.49;99919.34;5034290;28;20055;-47
2023/01/09 06:33:50;;;;;;;7.57;4.97;;;;;;;19.60;56.68;99925.41;5034473;28;20041;-49
2023/01/09 06:36:18;;;;;;;6.70;4.43;;;;;;;19.60;56.62;99940.66;5034312;28;20049;-48
2023/01/09 06:38:48;;;;;;;5.25;4.35;;;;;;;19.58;56.57;99948.91;5034510;28;20057;-48
2023/01/09 06:41:16;;;;;;;5.18;4.47;;;;;;;19.59;56.79;99945.19;5034166;28;20046;-49
2023/01/09 06:43:43;;;;;;;6.07;4.57;;;;;;;19.58;56.68;99943.53;5034296;28;20357;-47
2023/01/09 06:46:10;;;;;;;6.18;4.30;;;;;;;19.59;56.64;99939.00;5034018;28;20404;-48
2023/01/09 06:48:38;;;;;;;7.15;4.68;;;;;;;19.58;56.85;99938.16;5034031;28;20041;-48
2023/01/09 06:51:05;;;;;;;5.00;4.25;;;;;;;19.59;56.89;99949.72;5033535;28;20048;-48
2023/01/09 06:53:33;;;;;;;5.80;4.30;;;;;;;19.58;56.70;99950.75;5033850;28;20049;-49
2023/01/09 06:56:01;;;;;;;5.13;4.63;;;;;;;19.58;56.84;99942.69;5034049;28;20071;-51
2023/01/09 06:58:28;;;;;;;5.07;4.18;;;;;;;19.57;56.81;99936.47;5034306;28;20064;-55
2023/01/09 07:00:58;;;;;;;4.80;4.28;;;;;;;19.58;56.78;99938.16;5033997;28;20048;-55
2023/01/09 07:03:25;;;;;;;4.93;3.85;;;;;;;19.58;56.68;99926.56;5033959;28;20056;-55
2023/01/09 07:05:53;;;;;;;4.40;3.50;;;;;;;19.56;56.69;99907.91;5033916;28;20045;-55
2023/01/09 07:08:20;;;;;;;4.78;3.55;;;;;;;19.56;56.84;99915.97;5032819;28;20041;-54
2023/01/09 07:10:48;;;;;;;4.70;3.90;;;;;;;19.57;56.81;99919.50;5033874;28;20045;-51
2023/01/09 07:13:15;;;;;;;5.43;4.35;;;;;;;19.57;56.82;99928.41;5033275;28;20506;-52
2023/01/09 07:15:42;;;;;;;5.22;3.70;;;;;;;19.57;56.75;99914.13;5033679;28;20377;-52
2023/01/09 07:18:10;;;;;;;5.10;3.78;;;;;;;19.56;56.76;99897.19;5033898;28;20502;-48
2023/01/09 07:20:40;;;;;;;4.93;4.00;;;;;;;19.56;56.80;99897.19;5033766;28;20041;-48
2023/01/09 07:23:14;;;;;;;4.30;3.50;;;;;;;19.56;56.68;99889.13;5033789;28;20053;-48
2023/01/09 07:25:42;;;;;;;6.82;3.78;;;;;;;19.58;56.71;99899.72;5033670;28;20045;-51
2023/01/09 07:28:09;;;;;;;6.88;3.90;;;;;;;19.58;56.72;99889.00;5033730;28;20050;-51
2023/01/09 07:30:36;;;;;;;4.80;3.88;;;;;;;19.58;56.73;99879.09;5033602;28;20422;-52
2023/01/09 07:33:04;;;;;;;4.95;3.92;;;;;;;19.60;56.68;99868.19;5033633;28;20391;-56
2023/01/09 07:35:31;;;;;;;3.80;3.00;;;;;;;19.59;56.52;99861.97;5033424;28;20498;-55
2023/01/09 07:37:59;;;;;;;7.53;3.42;;;;;;;19.59;54.46;99855.75;5033409;28;20053;-48
2023/01/09 07:40:26;;;;;;;6.00;3.40;;;;;;;19.50;50.13;99855.72;5033541;28;20514;-49
2023/01/09 07:42:53;;;;;;;4.30;3.42;;;;;;;19.23;48.98;99875.44;5033224;28;20049;-50
2023/01/09 07:45:21;;;;;;;5.10;2.78;;;;;;;18.92;48.92;99893.78;5033487;28;20396;-52
2023/01/09 07:47:48;;;;;;;4.50;3.15;;;;;;;18.67;49.36;99862.28;5033536;28;20056;-51
2023/01/09 07:50:16;;;;;;;4.55;3.38;;;;;;;18.50;49.44;99827.25;5033361;28;20052;-53
2023/01/09 07:52:46;;;;;;;4.38;2.80;;;;;;;18.33;50.08;99811.16;5033458;28;20056;-53
2023/01/09 07:55:14;;;;;;;5.53;2.90;;;;;;;18.28;50.46;99852.63;5033283;28;20407;-49
2023/01/09 07:57:47;;;;;;;6.25;2.78;;;;;;;18.25;50.19;99890.44;5033419;28;20045;-52
2023/01/09 08:00:15;;;;;;;4.25;3.00;;;;;;;18.13;50.13;99913.03;5033178;28;20057;-50
2023/01/09 08:02:43;;;;;;;4.90;2.75;;;;;;;18.01;50.73;99944.50;5041739;28;20052;-52
2023/01/09 08:05:13;;;;;;;4.40;3.03;;;;;;;17.94;50.60;99910.41;5052940;28;20044;-51
2023/01/09 08:07:41;;;;;;;3.90;2.80;;;;;;;17.89;50.78;99873.38;5053065;28;20049;-47
2023/01/09 08:10:10;;;;;;;3.60;2.70;;;;;;;17.83;50.77;99873.97;5052982;28;20057;-50
2023/01/09 08:12:41;;;;;;;5.03;2.85;;;;;;;17.77;50.41;99878.03;5052566;28;20379;-50
2023/01/09 08:15:09;;;;;;;4.45;3.10;;;;;;;17.70;50.93;99874.25;5052891;28;20049;-50
2023/01/09 08:17:36;;;;;;;3.53;2.60;;;;;;;17.67;50.64;99874.53;5052833;28;20049;-47
2023/01/09 08:20:04;;;;;;;5.55;2.85;;;;;;;17.67;50.86;99865.66;5052666;28;20041;-49
2023/01/09 08:22:31;;;;;;;4.97;3.13;;;;;;;17.65;50.51;99892.56;5052838;28;20041;-51
2023/01/09 08:24:59;;;;;;;5.15;3.00;;;;;;;17.65;50.92;99905.94;5052800;28;20049;-48
2023/01/09 08:27:27;;;;;;;4.38;2.70;;;;;;;17.75;51.86;99912.16;5054239;28;20049;-48
2023/01/09 08:29:54;;;;;;;3.40;2.10;;;;;;;17.91;52.49;99908.06;5056458;28;20052;-49
2023/01/09 08:32:21;;;;;;;2.63;1.58;;;;;;;18.06;52.68;99903.91;5056296;28;20045;-49
2023/01/09 08:34:48;;;;;;;4.13;1.85;;;;;;;18.20;52.99;99892.72;5056357;28;20053;-49
2023/01/09 08:37:16;;;;;;;3.65;1.50;;;;;;;18.31;52.99;99890.81;5056161;28;20040;-52
2023/01/09 08:39:43;;;;;;;2.60;1.60;;;;;;;18.40;52.81;99906.88;5056533;28;20044;-50
2023/01/09 08:47:42;;;;;;;2.55;1.20;;;;;;;18.63;52.25;99911.81;5056206;28;20052;-48
2023/01/09 08:50:12;;;;;;;3.60;1.50;;;;;;;18.67;52.58;99906.00;5054957;28;20400;-50
2023/01/09 08:52:39;;;;;;;5.43;1.65;;;;;;;18.71;52.48;99902.06;5055083;28;20047;-48
2023/01/09 08:55:07;;;;;;;3.03;1.38;;;;;;;18.76;52.56;99907.00;5055445;28;20075;-50
2023/01/09 08:57:35;;;;;;;2.83;1.55;;;;;;;18.79;52.44;99909.38;5055837;28;20048;-51
2023/01/09 09:00:06;;;;;;;2.55;1.50;;;;;;;18.83;52.47;99920.63;5055842;28;20044;-51
2023/01/09 09:02:33;;;;;;;2.03;1.20;;;;;;;18.83;52.61;99921.47;5055255;28;20041;-49
2023/01/09 09:05:00;;;;;;;2.50;1.20;;;;;;;18.85;52.42;99911.47;5055599;28;20055;-49
2023/01/09 09:07:28;;;;;;;2.45;1.48;;;;;;;18.88;52.68;99904.94;5055681;28;20049;-49
2023/01/09 09:09:55;;;;;;;2.75;1.55;;;;;;;18.89;52.42;99898.59;5055598;28;20041;-51
2023/01/09 09:12:23;;;;;;;2.30;1.50;;;;;;;18.90;52.65;99895.75;5055566;28;20049;-49
2023/01/09 09:17:36;;;;;;;3.53;1.40;;;;;;;18.94;52.47;99885.56;5055614;28;20049;-47
2023/01/09 09:20:04;;;;;;;3.45;1.58;;;;;;;18.95;52.45;99895.28;5055498;28;20051;-51
2023/01/09 09:22:31;;;;;;;2.42;1.52;;;;;;;18.96;52.48;99897.00;5055178;28;20037;-48
2023/01/09 09:24:59;;;;;;;2.53;1.25;;;;;;;18.96;52.39;99897.00;5054839;28;20052;-50
2023/01/09 09:27:27;;;;;;;1.95;1.30;;;;;;;18.97;52.05;99907.56;5054939;28;20521;-51
2023/01/09 09:29:54;;;;;;;2.35;1.20;;;;;;;18.98;52.05;99909.25;5054986;28;20052;-48
2023/01/09 09:32:21;;;;;;;4.22;3.00;;;;;;;18.98;51.07;99909.25;5055037;28;20493;-48
2023/01/09 09:34:49;;;;;;;4.93;3.97;;;;;;;18.98;49.90;99903.03;5055237;28;20441;-49
2023/01/09 09:37:16;;;;;;;4.50;3.42;;;;;;;18.98;50.74;99895.00;5054826;28;20045;-48
2023/01/09 09:39:43;;;;;;;2.80;2.00;;;;;;;18.99;51.78;99910.09;5053521;28;20045;-49
2023/01/09 09:45:13;;;;;;;2.80;1.77;;;;;;;18.99;51.94;99912.75;5055217;28;20049;-49
2023/01/09 09:47:46;;;;;;;3.88;1.88;;;;;;;19.01;51.98;99921.53;5054936;28;20051;-48
2023/01/09 09:50:51;;;;;;;2.78;1.85;;;;;;;19.02;52.06;99931.25;5054885;28;20048;-50
2023/01/09 09:53:42;;;;;;;2.92;2.13;;;;;;;19.04;51.66;99940.00;5054732;28;20064;-48
2023/01/09 09:56:13;;;;;;;2.38;1.58;;;;;;;19.05;51.98;99940.84;5054653;28;20499;-49
2023/01/09 09:58:44;;;;;;;2.63;2.10;;;;;;;19.05;51.93;99930.94;5055060;28;20052;-49
2023/01/09 10:01:17;;;;;;;2.45;1.55;;;;;;;19.05;51.88;99951.56;5054844;28;20052;-49
2023/01/09 10:04:00;;;;;;;3.08;2.03;;;;;;;19.06;51.68;99953.25;5054686;28;20048;-49
2023/01/09 10:06:33;;;;;;;3.40;2.20;;;;;;;19.07;51.82;99958.44;5054708;28;20041;-48
2023/01/09 10:09:35;;;;;;;2.72;1.90;;;;;;;19.08;51.94;99956.59;5054701;28;20383;-49
2023/01/09 10:12:25;;;;;;;2.50;1.80;;;;;;;19.07;51.85;99960.28;5053233;28;20053;-48
2023/01/09 10:15:18;;;;;;;2.88;2.20;;;;;;;19.08;52.20;99954.78;5054322;28;20155;-50
2023/01/09 10:17:48;;;;;;;3.33;2.35;;;;;;;19.08;52.11;99927.97;5054532;28;20044;-49
2023/01/09 10:20:36;;;;;;;4.35;2.28;;;;;;;19.08;52.01;99908.31;5054502;28;20049;-49
2023/01/09 10:23:22;;;;;;;3.58;2.17;;;;;;;19.08;51.90;99874.31;5054165;28;20037;-51
2023/01/09 10:25:52;;;;;;;2.78;1.83;;;;;;;19.09;51.83;99845.66;5054020;28;20049;-49
2023/01/09 10:28:39;;;;;;;2.90;2.35;;;;;;;19.10;52.27;99815.13;5038789;28;20052;-49
2023/01/09 10:31:16;;;;;;;3.20;2.35;;;;;;;19.09;51.90;99811.63;5034022;28;20048;-49
2023/01/09 10:33:55;;;;;;;3.20;2.20;;;;;;;19.10;51.97;99856.22;5033689;28;20068;-48
2023/01/09 10:36:25;;;;;;;3.35;2.67;;;;;;;19.11;51.94;99865.94;5034009;28;20061;-49
2023/01/09 10:38:58;;;;;;;3.65;2.63;;;;;;;19.13;51.97;99890.78;5034194;28;20364;-49
2023/01/09 10:41:26;;;;;;;5.95;2.50;;;;;;;19.14;52.10;99886.25;5033656;28;20080;-51
2023/01/09 10:44:00;;;;;;;2.88;2.22;;;;;;;19.13;52.14;99900.69;5033786;28;20049;-51
2023/01/09 10:46:40;;;;;;;2.85;2.30;;;;;;;19.13;52.06;99906.03;5033888;28;20399;-49
2023/01/09 10:49:14;;;;;;;3.72;2.58;;;;;;;19.14;52.09;99899.69;5034384;28;20054;-50
2023/01/09 10:51:50;;;;;;;3.08;2.10;;;;;;;19.14;52.11;99903.19;5032675;28;20045;-49
2023/01/09 10:54:22;;;;;;;3.25;2.15;;;;;;;19.14;52.11;99897.84;5033603;28;20053;-51
2023/01/09 10:57:05;;;;;;;2.80;2.30;;;;;;;19.14;52.02;99900.50;5034252;28;20053;-52
2023/01/09 10:59:32;;;;;;;3.50;2.50;;;;;;;19.15;52.01;99904.03;5034001;28;20287;-52
2023/01/09 11:02:00;;;;;;;2.67;2.00;;;;;;;19.15;52.27;99896.84;5031889;28;20060;-50
2023/01/09 11:04:38;;;;;;;4.15;2.75;;;;;;;19.15;52.05;99888.78;5033730;28;20045;-50
2023/01/09 11:07:19;;;;;;;3.60;2.40;;;;;;;19.15;52.21;99886.09;5033285;28;20045;-53
2023/01/09 11:10:03;;;;;;;2.83;2.15;;;;;;;19.16;52.18;99886.94;5033546;28;20060;-48
2023/01/09 11:12:32;;;;;;;3.15;2.35;;;;;;;19.17;52.10;99872.56;5032202;28;20041;-52
2023/01/09 11:15:29;;;;;;;2.95;2.10;;;;;;;19.17;52.19;99867.19;5033292;28;20049;-53
2023/01/09 11:18:16;;;;;;;3.08;2.50;;;;;;;19.17;52.28;99881.44;5031392;28;20422;-49
2023/01/09 11:20:43;;;;;;;3.20;2.40;;;;;;;19.18;52.31;99871.53;5032245;28;20045;-49
2023/01/09 11:23:40;;;;;;;3.40;2.25;;;;;;;19.17;52.11;99889.50;5033022;28;20044;-51
2023/01/09 11:26:21;;;;;;;3.95;2.47;;;;;;;19.18;52.12;99893.00;5036323;28;20053;-52
2023/01/09 11:29:09;;;;;;;3.15;2.08;;;;;;;19.17;52.23;99894.84;5033665;28;20056;-50
2023/01/09 11:31:37;;;;;;;3.42;2.42;;;;;;;19.18;52.18;99875.06;5033432;28;20041;-48
2023/01/09 11:34:14;;;;;;;3.50;2.72;;;;;;;19.18;52.40;99872.38;5032093;28;20053;-50
2023/01/09 11:36:41;;;;;;;3.53;2.55;;;;;;;19.18;52.25;99875.06;5033310;28;20041;-49
2023/01/09 11:39:24;;;;;;;3.28;2.35;;;;;;;19.18;52.48;99876.91;5033188;28;20049;-49
2023/01/09 11:41:54;;;;;;;;;;;;;;;19.19;52.30;99875.91;5033520;28;20061;-49
2023/01/09 11:44:22;;;;;;;3.83;2.20;;;;;;;19.19;52.28;99892.84;5033215;28;20281;-50
2023/01/09 11:46:50;;;;;;;2.78;2.08;;;;;;;19.20;52.27;99881.13;5033221;28;20072;-49
2023/01/09 11:49:22;;;;;;;2.80;2.10;;;;;;;19.20;52.29;99885.63;5033370;28;20057;-49
2023/01/09 11:52:19;;;;;;;3.25;2.45;;;;;;;19.20;52.47;99896.38;5032991;28;20049;-48
2023/01/09 11:55:16;;;;;;;3.58;2.88;;;;;;;19.20;52.25;99886.50;5033605;28;20049;-50
2023/01/09 11:57:44;;;;;;;3.40;2.33;;;;;;;19.20;52.45;99880.25;5052921;28;20057;-49
2023/01/09 12:00:24;;;;;;;3.38;2.60;;;;;;;19.20;52.37;99873.09;5052969;28;20510;-51
2023/01/09 12:03:16;;;;;;;7.95;2.83;;;;;;;19.19;52.36;99867.84;5055025;28;20043;-53